Terminal Aerodrome Forecast
Issued by NWS

Home | Current Version | Previous Version | Graphics & Text | Print | Product List | Glossary On
Versions: 1 2 3 4 5 6 7 8 9 10 11 12 13
000
FTUS43 KFGF 131100
TAFBJI
TAF
KBJI 131139Z 1312/1412 31015KT P6SM OVC004
     FM131500 34017G25KT P6SM OVC010
     FM132000 34018G24KT P6SM SCT015
     FM140100 33015KT P6SM SKC=

USA.gov is the U.S. government's official web portal to all federal, state and local government web resources and services.